Time;durP1;ratioP1;P1;durP2;ratioP2;P2;SDS_P1;SDS_P2;PMS_P1;PMS_P2;Temp;Humidity;BMP_temperature;BMP_pressure;BME280_temperature;BME280_humidity;BME280_pressure;Samples;Min_cycle;Max_cycle;Signal;HPM_P1;HPM_P2
2023/09/03 00:00:31;;;;;;;33.73;23.60;;;;;;;;;;2612002;39;20889;-70
2023/09/03 00:02:57;;;;;;;31.73;23.77;;;;;;;;;;2612386;54;20420;-73
2023/09/03 00:05:23;;;;;;;36.67;23.53;;;;;;;;;;2612114;54;20396;-71
2023/09/03 00:07:50;;;;;;;33.13;22.20;;;;;;;;;;2611412;54;20423;-72
2023/09/03 00:10:17;;;;;;;26.93;22.93;;;;;;;;;;2612454;54;20423;-71
2023/09/03 00:12:43;;;;;;;34.07;24.00;;;;;;;;;;2610820;54;20462;-72
2023/09/03 00:15:09;;;;;;;35.00;24.60;;;;;;;;;;2611498;47;20554;-72
2023/09/03 00:17:35;;;;;;;33.63;23.57;;;;;;;;;;2612024;54;20434;-71
2023/09/03 00:20:02;;;;;;;31.73;23.60;;;;;;;;;;2611492;54;20435;-72
2023/09/03 00:22:28;;;;;;;31.57;23.83;;;;;;;;;;2611331;46;20404;-72
2023/09/03 00:24:55;;;;;;;31.23;23.87;;;;;;;;;;2610563;54;20420;-73
2023/09/03 00:27:21;;;;;;;30.30;24.10;;;;;;;;;;2611963;54;20400;-72
2023/09/03 00:29:48;;;;;;;34.53;23.70;;;;;;;;;;2610894;39;20831;-72
2023/09/03 00:32:14;;;;;;;33.20;24.23;;;;;;;;;;2611771;54;20523;-70
2023/09/03 00:34:40;;;;;;;35.60;23.90;;;;;;;;;;2612237;54;20396;-74
2023/09/03 00:37:06;;;;;;;36.40;24.13;;;;;;;;;;2611844;54;20428;-74
2023/09/03 00:39:33;;;;;;;34.27;24.90;;;;;;;;;;2611218;54;20414;-73
2023/09/03 00:42:00;;;;;;;31.27;23.07;;;;;;;;;;2611784;54;20511;-73
2023/09/03 00:44:26;;;;;;;29.10;22.43;;;;;;;;;;2611697;54;20446;-71
2023/09/03 00:46:52;;;;;;;31.60;22.73;;;;;;;;;;2611361;51;20399;-73
2023/09/03 00:49:21;;;;;;;35.50;24.70;;;;;;;;;;2611866;54;20966;-71
2023/09/03 00:51:50;;;;;;;37.50;23.40;;;;;;;;;;2611429;54;20387;-69
2023/09/03 00:54:16;;;;;;;31.33;22.10;;;;;;;;;;2614065;39;21103;-70
2023/09/03 00:56:45;;;;;;;32.30;22.17;;;;;;;;;;2611992;54;20507;-70
2023/09/03 00:59:14;;;;;;;32.63;23.43;;;;;;;;;;2611647;54;20994;-70
2023/09/03 01:01:40;;;;;;;31.47;21.53;;;;;;;;;;2610886;47;20965;-71
2023/09/03 01:04:06;;;;;;;31.53;21.87;;;;;;;;;;2611326;54;20416;-73
2023/09/03 01:06:32;;;;;;;32.23;22.10;;;;;;;;;;2610748;54;20443;-74
2023/09/03 01:08:58;;;;;;;35.27;22.93;;;;;;;;;;2612159;54;20463;-71
2023/09/03 01:11:24;;;;;;;29.43;22.13;;;;;;;;;;2610430;54;20402;-72
2023/09/03 01:14:00;;;;;;;37.10;24.63;;;;;;;;;;2611938;39;20830;-71
2023/09/03 01:16:31;;;;;;;33.93;23.63;;;;;;;;;;2611354;47;20438;-72
2023/09/03 01:18:58;;;;;;;29.20;22.63;;;;;;;;;;2612144;54;20406;-71
2023/09/03 01:21:35;;;;;;;31.43;22.90;;;;;;;;;;2611686;54;20418;-71
2023/09/03 01:24:20;;;;;;;32.33;23.23;;;;;;;;;;2611775;47;20395;-72
2023/09/03 01:27:13;;;;;;;30.53;22.97;;;;;;;;;;2612080;47;20431;-71
2023/09/03 01:29:41;;;;;;;37.20;24.10;;;;;;;;;;2612035;54;20873;-70
2023/09/03 01:32:08;;;;;;;38.37;25.93;;;;;;;;;;2611741;54;20398;-71
2023/09/03 01:34:34;;;;;;;40.17;24.53;;;;;;;;;;2611706;54;20531;-73
2023/09/03 01:37:00;;;;;;;47.70;28.97;;;;;;;;;;2611135;47;20439;-70
2023/09/03 01:39:26;;;;;;;44.03;26.33;;;;;;;;;;2612278;54;20388;-71
2023/09/03 01:41:53;;;;;;;38.50;25.87;;;;;;;;;;2610930;54;21661;-71
2023/09/03 01:44:20;;;;;;;34.93;25.87;;;;;;;;;;2611609;54;20446;-70
2023/09/03 01:46:49;;;;;;;41.87;26.10;;;;;;;;;;2612109;54;20926;-69
2023/09/03 01:49:18;;;;;;;37.50;27.13;;;;;;;;;;2611342;54;20396;-71
2023/09/03 01:51:47;;;;;;;45.13;26.93;;;;;;;;;;2611840;54;20435;-71
2023/09/03 01:54:23;;;;;;;39.40;25.90;;;;;;;;;;2611597;47;20469;-73
2023/09/03 01:56:58;;;;;;;40.17;25.97;;;;;;;;;;2610953;54;20387;-73
2023/09/03 01:59:29;;;;;;;37.23;26.97;;;;;;;;;;2610750;54;20403;-73
2023/09/03 02:01:55;;;;;;;46.93;29.33;;;;;;;;;;2607571;54;20390;-74
2023/09/03 02:04:21;;;;;;;48.67;29.80;;;;;;;;;;2610428;47;20615;-73
2023/09/03 02:06:47;;;;;;;41.77;28.80;;;;;;;;;;2609668;47;20424;-73
2023/09/03 02:09:13;;;;;;;43.77;26.40;;;;;;;;;;2610792;54;20427;-74
2023/09/03 02:11:39;;;;;;;41.10;27.53;;;;;;;;;;2611779;54;20423;-73
2023/09/03 02:14:06;;;;;;;44.40;26.00;;;;;;;;;;2611709;54;20454;-72
2023/09/03 02:16:32;;;;;;;37.57;25.90;;;;;;;;;;2611864;31;20927;-73
2023/09/03 02:18:58;;;;;;;42.00;27.20;;;;;;;;;;2612204;54;20581;-73
2023/09/03 02:21:24;;;;;;;34.20;24.03;;;;;;;;;;2611922;54;20559;-72
2023/09/03 02:23:50;;;;;;;41.53;25.03;;;;;;;;;;2611996;54;20404;-73
2023/09/03 02:26:18;;;;;;;42.67;27.20;;;;;;;;;;2611431;54;20996;-73
2023/09/03 02:28:45;;;;;;;38.97;27.20;;;;;;;;;;2610420;47;20411;-73
2023/09/03 02:31:12;;;;;;;38.60;27.60;;;;;;;;;;2611498;54;20482;-73
2023/09/03 02:33:38;;;;;;;41.47;29.13;;;;;;;;;;2612095;54;20427;-74
2023/09/03 02:36:04;;;;;;;35.53;26.70;;;;;;;;;;2612193;54;20423;-73
2023/09/03 02:38:30;;;;;;;42.10;27.97;;;;;;;;;;2611269;54;20519;-74
2023/09/03 02:40:56;;;;;;;36.70;26.60;;;;;;;;;;2611453;54;20423;-73
2023/09/03 02:43:23;;;;;;;42.40;28.40;;;;;;;;;;2612396;54;20459;-73
2023/09/03 02:45:51;;;;;;;50.73;28.60;;;;;;;;;;2611384;54;20415;-73
2023/09/03 02:48:17;;;;;;;53.67;32.67;;;;;;;;;;2611523;47;20402;-74
2023/09/03 02:50:43;;;;;;;58.43;35.03;;;;;;;;;;2611432;54;20392;-74
2023/09/03 02:53:10;;;;;;;54.67;33.00;;;;;;;;;;2611530;54;20426;-73
2023/09/03 02:55:36;;;;;;;56.53;34.97;;;;;;;;;;2610097;54;20415;-72
2023/09/03 02:58:02;;;;;;;59.60;37.00;;;;;;;;;;2610241;47;20448;-73
2023/09/03 03:00:28;;;;;;;62.80;37.83;;;;;;;;;;2611810;54;20930;-74
2023/09/03 03:02:54;;;;;;;71.10;41.40;;;;;;;;;;2611573;54;20416;-74
2023/09/03 03:05:20;;;;;;;68.23;38.67;;;;;;;;;;2612378;54;20424;-73
2023/09/03 03:07:48;;;;;;;65.90;39.23;;;;;;;;;;2613321;39;20980;-74
2023/09/03 03:10:15;;;;;;;59.80;36.83;;;;;;;;;;2613395;54;20416;-74
2023/09/03 03:12:43;;;;;;;61.57;38.00;;;;;;;;;;2613359;54;21014;-73
2023/09/03 03:15:10;;;;;;;57.40;36.53;;;;;;;;;;2613483;47;20427;-75
2023/09/03 03:17:36;;;;;;;59.00;37.37;;;;;;;;;;2613111;54;20430;-74
2023/09/03 03:20:03;;;;;;;63.13;38.40;;;;;;;;;;2612888;54;20430;-74
2023/09/03 03:22:30;;;;;;;60.27;38.70;;;;;;;;;;2612993;54;20404;-74
2023/09/03 03:24:57;;;;;;;69.47;38.00;;;;;;;;;;2612663;54;20430;-73
2023/09/03 03:27:23;;;;;;;70.77;40.40;;;;;;;;;;2612071;54;20435;-74
2023/09/03 03:29:52;;;;;;;59.40;37.80;;;;;;;;;;2612569;39;20806;-74
2023/09/03 03:32:21;;;;;;;60.83;38.77;;;;;;;;;;2614288;54;20420;-74
2023/09/03 03:34:47;;;;;;;61.27;35.13;;;;;;;;;;2613082;54;21033;-74
2023/09/03 03:37:14;;;;;;;66.83;38.13;;;;;;;;;;2613349;39;20910;-73
2023/09/03 03:39:40;;;;;;;70.10;39.63;;;;;;;;;;2613221;39;21022;-73
2023/09/03 03:42:08;;;;;;;77.70;40.67;;;;;;;;;;2613472;54;20423;-74
2023/09/03 03:44:35;;;;;;;78.73;43.30;;;;;;;;;;2613139;54;20400;-74
2023/09/03 03:47:02;;;;;;;78.03;40.40;;;;;;;;;;2613231;39;20794;-73
2023/09/03 03:49:28;;;;;;;63.00;39.03;;;;;;;;;;2611158;47;20570;-74
2023/09/03 03:51:54;;;;;;;68.80;39.00;;;;;;;;;;2613420;54;20449;-74
2023/09/03 03:54:20;;;;;;;57.40;38.00;;;;;;;;;;2612725;47;20420;-74
2023/09/03 03:56:46;;;;;;;65.27;38.53;;;;;;;;;;2612006;54;20458;-74
2023/09/03 03:59:12;;;;;;;53.30;35.30;;;;;;;;;;2612429;54;20523;-73
2023/09/03 04:01:39;;;;;;;61.60;37.23;;;;;;;;;;2613226;54;21005;-74
2023/09/03 04:04:05;;;;;;;58.83;36.30;;;;;;;;;;2613055;54;20527;-75
2023/09/03 04:06:32;;;;;;;55.10;36.67;;;;;;;;;;2612104;47;20416;-74
2023/09/03 04:08:58;;;;;;;65.73;37.23;;;;;;;;;;2613169;54;20396;-74
2023/09/03 04:11:24;;;;;;;60.17;36.07;;;;;;;;;;2612187;47;20969;-74
2023/09/03 04:13:50;;;;;;;58.20;35.83;;;;;;;;;;2612948;54;20982;-74
2023/09/03 04:16:17;;;;;;;46.43;32.43;;;;;;;;;;2611606;54;20423;-74
2023/09/03 04:18:44;;;;;;;52.60;33.03;;;;;;;;;;2612199;39;20913;-74
2023/09/03 04:21:10;;;;;;;50.17;32.40;;;;;;;;;;2608875;54;20556;-74
2023/09/03 04:23:37;;;;;;;52.93;33.80;;;;;;;;;;2612080;54;20442;-74
2023/09/03 04:26:03;;;;;;;46.07;32.33;;;;;;;;;;2611892;39;20895;-73
2023/09/03 04:28:29;;;;;;;51.13;33.10;;;;;;;;;;2610105;54;20416;-74
2023/09/03 04:30:56;;;;;;;55.33;34.30;;;;;;;;;;2611574;54;20946;-74
2023/09/03 04:33:23;;;;;;;55.13;33.77;;;;;;;;;;2610279;47;20424;-73
2023/09/03 04:35:55;;;;;;;57.40;34.03;;;;;;;;;;2610811;54;20392;-73
2023/09/03 04:38:21;;;;;;;63.27;34.50;;;;;;;;;;2611031;54;20395;-73
2023/09/03 04:40:47;;;;;;;49.20;33.33;;;;;;;;;;2611734;54;20557;-73
2023/09/03 04:43:13;;;;;;;63.17;34.50;;;;;;;;;;2608406;54;20962;-73
2023/09/03 04:45:45;;;;;;;57.97;36.47;;;;;;;;;;2611341;54;20384;-73
2023/09/03 04:48:11;;;;;;;124.47;49.00;;;;;;;;;;2610373;54;20434;-73
2023/09/03 04:50:37;;;;;;;220.40;56.73;;;;;;;;;;2609066;54;20415;-73
2023/09/03 04:53:03;;;;;;;281.80;67.50;;;;;;;;;;2610083;54;20403;-73
2023/09/03 04:55:32;;;;;;;244.13;54.70;;;;;;;;;;2610774;54;20562;-73
2023/09/03 04:57:58;;;;;;;144.60;51.17;;;;;;;;;;2611327;46;20415;-73
2023/09/03 05:00:25;;;;;;;90.13;40.73;;;;;;;;;;2610027;54;20454;-72
2023/09/03 05:02:51;;;;;;;65.53;38.57;;;;;;;;;;2610396;47;20416;-73
2023/09/03 05:05:21;;;;;;;322.00;70.90;;;;;;;;;;2611664;54;20432;-72
2023/09/03 05:07:47;;;;;;;79.33;41.93;;;;;;;;;;2611140;54;20463;-73
2023/09/03 05:10:13;;;;;;;65.97;40.03;;;;;;;;;;2610953;54;20427;-72
2023/09/03 05:12:43;;;;;;;77.30;39.47;;;;;;;;;;2609851;49;20493;-73
2023/09/03 05:15:10;;;;;;;95.23;42.60;;;;;;;;;;2610824;54;20551;-72
2023/09/03 05:17:38;;;;;;;86.77;42.80;;;;;;;;;;2611264;54;20431;-72
2023/09/03 05:20:04;;;;;;;93.80;42.47;;;;;;;;;;2610609;47;20424;-71
2023/09/03 05:22:30;;;;;;;85.30;44.20;;;;;;;;;;2610639;54;20395;-72
2023/09/03 05:24:56;;;;;;;82.57;41.07;;;;;;;;;;2612117;54;20496;-72
2023/09/03 05:27:22;;;;;;;77.10;39.73;;;;;;;;;;2612627;39;20838;-72
2023/09/03 05:29:48;;;;;;;74.27;40.93;;;;;;;;;;2611238;54;20407;-73
2023/09/03 05:32:15;;;;;;;87.53;42.77;;;;;;;;;;2611184;54;20426;-72
2023/09/03 05:34:41;;;;;;;86.23;42.03;;;;;;;;;;2610549;54;20442;-72
2023/09/03 05:37:07;;;;;;;71.73;40.07;;;;;;;;;;2611745;54;20539;-72
2023/09/03 05:39:33;;;;;;;73.53;40.87;;;;;;;;;;2611529;54;20419;-73
2023/09/03 05:41:59;;;;;;;63.20;38.87;;;;;;;;;;2611285;54;20994;-73
2023/09/03 05:44:25;;;;;;;69.27;40.47;;;;;;;;;;2609178;47;20523;-72
2023/09/03 05:46:52;;;;;;;78.40;43.00;;;;;;;;;;2611288;54;20403;-72
2023/09/03 05:49:18;;;;;;;91.73;48.43;;;;;;;;;;2611136;54;20408;-76
2023/09/03 05:51:44;;;;;;;111.57;47.80;;;;;;;;;;2611447;54;20503;-72
2023/09/03 05:54:10;;;;;;;87.00;45.60;;;;;;;;;;2607925;54;20428;-73
2023/09/03 05:56:36;;;;;;;105.80;48.63;;;;;;;;;;2611529;39;20972;-73
2023/09/03 05:59:08;;;;;;;109.03;49.30;;;;;;;;;;2608521;54;20981;-76
2023/09/03 06:01:34;;;;;;;95.80;44.00;;;;;;;;;;2611016;54;20459;-72
2023/09/03 06:04:06;;;;;;;104.73;46.47;;;;;;;;;;2611434;54;20427;-77
2023/09/03 06:06:38;;;;;;;133.17;51.00;;;;;;;;;;2610273;47;20427;-72
2023/09/03 06:09:08;;;;;;;140.83;54.13;;;;;;;;;;2611824;54;20410;-73
2023/09/03 06:11:35;;;;;;;105.07;47.50;;;;;;;;;;2612584;54;20420;-73
2023/09/03 06:14:01;;;;;;;79.30;43.67;;;;;;;;;;2612190;54;20429;-73
2023/09/03 06:16:27;;;;;;;119.53;49.97;;;;;;;;;;2611580;54;20438;-73
2023/09/03 06:18:54;;;;;;;85.83;46.67;;;;;;;;;;2612683;54;20431;-72
2023/09/03 06:21:20;;;;;;;89.80;49.37;;;;;;;;;;2612060;54;20503;-72
2023/09/03 06:23:46;;;;;;;85.03;46.40;;;;;;;;;;2612411;54;20471;-71
2023/09/03 06:26:13;;;;;;;75.20;43.60;;;;;;;;;;2609168;51;20431;-72
2023/09/03 06:28:40;;;;;;;153.27;51.33;;;;;;;;;;2610029;54;20395;-72
2023/09/03 06:31:06;;;;;;;108.47;48.80;;;;;;;;;;2611382;51;20518;-72
2023/09/03 06:33:32;;;;;;;77.90;41.80;;;;;;;;;;2612002;54;20418;-72
2023/09/03 06:35:58;;;;;;;109.07;45.80;;;;;;;;;;2610938;54;20430;-70
2023/09/03 06:38:25;;;;;;;83.57;43.93;;;;;;;;;;2610479;54;20454;-70
2023/09/03 06:40:51;;;;;;;73.67;41.77;;;;;;;;;;2612139;39;20783;-70
2023/09/03 06:43:17;;;;;;;73.47;40.80;;;;;;;;;;2611380;54;20423;-69
2023/09/03 06:45:43;;;;;;;148.43;48.90;;;;;;;;;;2610999;47;20415;-70
2023/09/03 06:48:09;;;;;;;164.97;47.03;;;;;;;;;;2612141;54;20994;-71
2023/09/03 06:50:35;;;;;;;127.53;46.10;;;;;;;;;;2611335;54;20419;-72
2023/09/03 06:53:01;;;;;;;109.33;40.93;;;;;;;;;;2611369;54;20432;-72
2023/09/03 06:55:27;;;;;;;160.40;51.23;;;;;;;;;;2608942;54;20434;-71
2023/09/03 06:57:53;;;;;;;88.40;41.67;;;;;;;;;;2610548;47;21376;-72
2023/09/03 07:00:20;;;;;;;78.60;40.03;;;;;;;;;;2608166;54;20399;-72
2023/09/03 07:02:46;;;;;;;60.23;36.80;;;;;;;;;;2608083;54;20427;-72
2023/09/03 07:05:14;;;;;;;60.60;39.70;;;;;;;;;;2611515;54;21243;-70
2023/09/03 07:07:42;;;;;;;46.73;34.90;;;;;;;;;;2611475;47;20423;-71
2023/09/03 07:10:09;;;;;;;71.97;41.97;;;;;;;;;;2611794;54;20495;-71
2023/09/03 07:12:35;;;;;;;48.07;36.97;;;;;;;;;;2612188;54;20423;-70
2023/09/03 07:15:01;;;;;;;59.10;39.40;;;;;;;;;;2612741;54;20445;-71
2023/09/03 07:17:27;;;;;;;60.43;41.33;;;;;;;;;;2612569;54;20404;-71
2023/09/03 07:19:54;;;;;;;64.17;39.60;;;;;;;;;;2610913;54;20423;-70
2023/09/03 07:22:21;;;;;;;59.60;37.70;;;;;;;;;;2611051;31;20834;-71
2023/09/03 07:24:47;;;;;;;66.13;38.90;;;;;;;;;;2611824;46;20423;-70
2023/09/03 07:27:13;;;;;;;61.30;36.57;;;;;;;;;;2609751;54;20452;-70
2023/09/03 07:29:39;;;;;;;47.43;36.27;;;;;;;;;;2609166;54;20435;-71
2023/09/03 07:32:05;;;;;;;109.90;39.13;;;;;;;;;;2612068;54;20427;-69
2023/09/03 07:34:31;;;;;;;87.57;40.27;;;;;;;;;;2611667;47;20471;-70
2023/09/03 07:36:57;;;;;;;114.13;41.03;;;;;;;;;;2611601;54;20383;-71
2023/09/03 07:39:23;;;;;;;61.03;39.93;;;;;;;;;;2612321;54;20420;-71
2023/09/03 07:41:49;;;;;;;69.73;40.23;;;;;;;;;;2611318;54;20966;-71
2023/09/03 07:44:15;;;;;;;79.83;41.30;;;;;;;;;;2611984;46;20475;-71
2023/09/03 07:46:41;;;;;;;83.17;39.37;;;;;;;;;;2611322;54;20400;-72
2023/09/03 07:49:07;;;;;;;84.73;41.70;;;;;;;;;;2611732;54;20787;-73
2023/09/03 07:51:33;;;;;;;68.07;40.63;;;;;;;;;;2610471;54;20433;-73
2023/09/03 07:53:59;;;;;;;79.37;43.00;;;;;;;;;;2612148;47;20419;-73
2023/09/03 07:56:25;;;;;;;62.17;41.70;;;;;;;;;;2611052;46;20430;-72
2023/09/03 07:58:52;;;;;;;61.13;38.10;;;;;;;;;;2611655;47;20412;-72
2023/09/03 08:01:19;;;;;;;60.43;40.30;;;;;;;;;;2610993;54;20380;-72
2023/09/03 08:03:45;;;;;;;53.80;40.57;;;;;;;;;;2610743;54;20404;-71
2023/09/03 08:06:13;;;;;;;56.30;38.33;;;;;;;;;;2612069;54;20407;-72
2023/09/03 08:08:39;;;;;;;51.83;35.97;;;;;;;;;;2611551;54;20375;-73
2023/09/03 08:11:05;;;;;;;44.20;35.70;;;;;;;;;;2611900;54;20443;-72
2023/09/03 08:13:31;;;;;;;68.17;43.27;;;;;;;;;;2612609;46;20458;-72
2023/09/03 08:15:57;;;;;;;55.70;39.30;;;;;;;;;;2612563;39;20814;-72
2023/09/03 08:18:23;;;;;;;52.07;37.40;;;;;;;;;;2612314;54;21239;-73
2023/09/03 08:20:50;;;;;;;44.70;36.90;;;;;;;;;;2611620;54;20399;-71
2023/09/03 08:23:16;;;;;;;44.10;36.93;;;;;;;;;;2611578;54;20411;-72
2023/09/03 08:25:42;;;;;;;42.23;34.63;;;;;;;;;;2611447;54;20430;-72
2023/09/03 08:28:09;;;;;;;41.17;35.30;;;;;;;;;;2611930;54;20432;-72
2023/09/03 08:30:35;;;;;;;42.17;36.13;;;;;;;;;;2609902;46;20408;-72
2023/09/03 08:33:01;;;;;;;39.20;33.47;;;;;;;;;;2610698;39;20528;-72
2023/09/03 08:35:28;;;;;;;41.87;35.03;;;;;;;;;;2610116;54;20416;-72
2023/09/03 08:37:54;;;;;;;38.20;34.00;;;;;;;;;;2611058;54;20542;-72
2023/09/03 08:40:20;;;;;;;37.90;33.03;;;;;;;;;;2611475;54;21184;-72
2023/09/03 08:42:49;;;;;;;37.90;32.90;;;;;;;;;;2612153;54;20463;-71
2023/09/03 08:45:18;;;;;;;38.00;32.70;;;;;;;;;;2611514;49;20531;-73
2023/09/03 08:47:45;;;;;;;39.97;35.90;;;;;;;;;;2612199;54;20434;-73
2023/09/03 08:50:15;;;;;;;37.07;33.27;;;;;;;;;;2611175;54;20408;-73
2023/09/03 08:52:42;;;;;;;38.43;34.23;;;;;;;;;;2612199;54;20391;-72
2023/09/03 08:55:10;;;;;;;40.50;36.03;;;;;;;;;;2611964;54;20974;-72
2023/09/03 08:57:36;;;;;;;38.30;34.40;;;;;;;;;;2612679;54;20419;-72
2023/09/03 09:00:06;;;;;;;35.90;32.40;;;;;;;;;;2611667;31;21057;-72
2023/09/03 09:02:33;;;;;;;36.60;33.10;;;;;;;;;;2611205;54;20420;-73
2023/09/03 09:05:01;;;;;;;33.03;29.83;;;;;;;;;;2610652;54;20428;-72
2023/09/03 09:07:27;;;;;;;31.97;29.07;;;;;;;;;;2610195;39;20825;-73
2023/09/03 09:09:58;;;;;;;34.80;31.37;;;;;;;;;;2611755;47;21016;-72
2023/09/03 09:12:27;;;;;;;34.33;31.20;;;;;;;;;;2611993;47;20462;-71
2023/09/03 09:14:56;;;;;;;31.40;28.77;;;;;;;;;;2613020;54;20375;-72
2023/09/03 09:17:22;;;;;;;32.30;29.40;;;;;;;;;;2612377;54;20404;-72
2023/09/03 09:19:48;;;;;;;31.30;28.63;;;;;;;;;;2611232;54;20422;-72
2023/09/03 09:22:14;;;;;;;33.90;30.80;;;;;;;;;;2611132;54;20407;-71
2023/09/03 09:24:44;;;;;;;31.50;28.50;;;;;;;;;;2611661;54;20392;-70
2023/09/03 09:27:14;;;;;;;31.37;28.67;;;;;;;;;;2611069;54;20914;-71
2023/09/03 09:29:40;;;;;;;31.07;28.33;;;;;;;;;;2608718;54;21008;-71
2023/09/03 09:32:20;;;;;;;29.47;26.97;;;;;;;;;;2609510;54;20403;-72
2023/09/03 09:34:46;;;;;;;30.80;27.90;;;;;;;;;;2612268;54;20419;-72
2023/09/03 09:37:15;;;;;;;30.57;28.07;;;;;;;;;;2611123;54;20430;-72
2023/09/03 09:39:43;;;;;;;31.10;28.47;;;;;;;;;;2609610;39;20970;-71
2023/09/03 09:42:11;;;;;;;30.27;27.87;;;;;;;;;;2609337;39;20835;-72
2023/09/03 09:44:38;;;;;;;30.80;28.20;;;;;;;;;;2610349;54;20415;-71
2023/09/03 09:47:16;;;;;;;29.67;27.07;;;;;;;;;;2611921;54;20422;-72
2023/09/03 09:49:42;;;;;;;30.77;28.03;;;;;;;;;;2612017;39;21003;-71
2023/09/03 09:52:10;;;;;;;29.97;27.67;;;;;;;;;;2610798;54;20519;-72
2023/09/03 09:54:40;;;;;;;29.30;26.90;;;;;;;;;;2609972;54;20415;-72
2023/09/03 09:57:10;;;;;;;29.83;27.40;;;;;;;;;;2609673;47;20522;-71
2023/09/03 09:59:36;;;;;;;28.23;25.93;;;;;;;;;;2607813;47;20427;-72
2023/09/03 10:02:12;;;;;;;29.73;27.43;;;;;;;;;;2610103;54;20518;-70
2023/09/03 10:04:42;;;;;;;29.57;27.30;;;;;;;;;;2609520;54;20434;-70
2023/09/03 10:07:08;;;;;;;31.20;28.50;;;;;;;;;;2610475;54;20408;-73
2023/09/03 10:09:38;;;;;;;30.47;27.87;;;;;;;;;;2611525;47;20538;-73
2023/09/03 10:12:04;;;;;;;25.47;23.23;;;;;;;;;;2612099;54;20451;-73
2023/09/03 10:14:30;;;;;;;23.47;21.67;;;;;;;;;;2610941;47;20450;-74
2023/09/03 10:16:57;;;;;;;23.20;21.40;;;;;;;;;;2613299;54;20470;-73
2023/09/03 10:19:25;;;;;;;23.53;21.50;;;;;;;;;;2611769;54;20419;-73
2023/09/03 10:21:52;;;;;;;23.47;21.57;;;;;;;;;;2611242;54;20396;-72
2023/09/03 10:24:19;;;;;;;23.50;21.23;;;;;;;;;;2611472;47;20451;-72
2023/09/03 10:26:50;;;;;;;23.13;21.37;;;;;;;;;;2612876;54;20515;-73
2023/09/03 10:29:19;;;;;;;22.47;20.73;;;;;;;;;;2613094;54;20987;-73
2023/09/03 10:31:46;;;;;;;24.57;22.63;;;;;;;;;;2613182;54;20442;-74
2023/09/03 10:34:17;;;;;;;22.50;20.70;;;;;;;;;;2613527;54;20391;-72
2023/09/03 10:37:03;;;;;;;19.67;18.17;;;;;;;;;;2612772;54;21347;-73
2023/09/03 10:39:30;;;;;;;20.97;19.13;;;;;;;;;;2613368;54;20400;-72
2023/09/03 10:42:27;;;;;;;19.40;17.90;;;;;;;;;;2613266;54;20412;-73
2023/09/03 10:44:57;;;;;;;20.77;19.27;;;;;;;;;;2612178;54;20431;-71
2023/09/03 10:47:24;;;;;;;20.30;18.90;;;;;;;;;;2612789;47;20475;-72
2023/09/03 10:49:54;;;;;;;19.87;18.40;;;;;;;;;;2613571;54;20402;-73
2023/09/03 10:52:34;;;;;;;21.73;20.13;;;;;;;;;;2613152;54;20895;-72
2023/09/03 10:55:20;;;;;;;19.60;18.20;;;;;;;;;;2613546;54;20981;-74
2023/09/03 10:58:23;;;;;;;20.63;19.20;;;;;;;;;;2613718;54;20399;-73
2023/09/03 11:01:07;;;;;;;20.67;19.20;;;;;;;;;;2612838;54;20423;-73
2023/09/03 11:03:46;;;;;;;18.80;17.30;;;;;;;;;;2611094;54;20390;-73
2023/09/03 11:06:29;;;;;;;18.30;17.00;;;;;;;;;;2613581;39;20463;-74
2023/09/03 11:09:03;;;;;;;14.90;13.80;;;;;;;;;;2613282;54;20407;-74
2023/09/03 11:11:35;;;;;;;13.70;12.90;;;;;;;;;;2612733;47;20399;-73
2023/09/03 11:14:01;;;;;;;14.40;13.50;;;;;;;;;;2612411;54;20515;-74
2023/09/03 11:16:28;;;;;;;14.30;13.30;;;;;;;;;;2614589;39;20968;-74
2023/09/03 11:18:55;;;;;;;13.57;12.87;;;;;;;;;;2614553;39;20805;-72
2023/09/03 11:21:23;;;;;;;13.97;13.07;;;;;;;;;;2613295;39;20537;-70
2023/09/03 11:24:02;;;;;;;12.20;11.50;;;;;;;;;;2611678;54;20412;-71
2023/09/03 11:26:28;;;;;;;11.73;11.10;;;;;;;;;;2612620;54;21670;-70
2023/09/03 11:28:54;;;;;;;14.70;13.70;;;;;;;;;;2613609;54;21374;-70
2023/09/03 11:31:21;;;;;;;13.40;12.70;;;;;;;;;;2609855;54;20392;-69
2023/09/03 11:33:47;;;;;;;14.10;13.30;;;;;;;;;;2612342;54;20415;-71
2023/09/03 11:36:13;;;;;;;12.73;12.03;;;;;;;;;;2611846;54;20410;-70
2023/09/03 11:38:39;;;;;;;14.17;12.73;;;;;;;;;;2611488;39;20928;-69
2023/09/03 11:41:06;;;;;;;14.30;13.43;;;;;;;;;;2612289;54;20396;-71
2023/09/03 11:43:35;;;;;;;12.10;11.50;;;;;;;;;;2612334;54;20395;-70
2023/09/03 11:46:01;;;;;;;12.93;12.03;;;;;;;;;;2612148;54;20443;-69
2023/09/03 11:48:29;;;;;;;11.70;11.00;;;;;;;;;;2612969;54;20927;-69
2023/09/03 11:50:55;;;;;;;11.60;11.00;;;;;;;;;;2612659;39;20839;-70
2023/09/03 11:53:25;;;;;;;11.70;11.10;;;;;;;;;;2612852;54;20530;-69
2023/09/03 11:55:55;;;;;;;11.90;11.20;;;;;;;;;;2612555;54;21396;-70
2023/09/03 11:58:22;;;;;;;13.73;12.90;;;;;;;;;;2610722;54;20415;-71
2023/09/03 12:00:49;;;;;;;13.93;13.10;;;;;;;;;;2612203;54;20454;-71
2023/09/03 12:03:15;;;;;;;15.50;14.60;;;;;;;;;;2612951;54;20424;-71
2023/09/03 12:05:42;;;;;;;14.27;13.47;;;;;;;;;;2612818;54;20963;-73
2023/09/03 12:08:08;;;;;;;13.77;12.90;;;;;;;;;;2612641;54;20994;-71
2023/09/03 12:10:36;;;;;;;13.30;12.47;;;;;;;;;;2611459;54;20400;-70
2023/09/03 12:13:03;;;;;;;13.70;12.90;;;;;;;;;;2606899;54;20506;-71
2023/09/03 12:15:30;;;;;;;14.77;13.93;;;;;;;;;;2610211;47;20447;-69
2023/09/03 12:18:07;;;;;;;14.07;13.20;;;;;;;;;;2611279;54;20415;-69
2023/09/03 12:20:41;;;;;;;14.40;13.40;;;;;;;;;;2607320;54;20399;-69
2023/09/03 12:23:11;;;;;;;13.27;12.57;;;;;;;;;;2611639;39;21119;-69
2023/09/03 12:25:38;;;;;;;14.37;13.23;;;;;;;;;;2611862;54;20402;-73
2023/09/03 12:28:04;;;;;;;14.10;13.20;;;;;;;;;;2612717;54;20372;-73
2023/09/03 12:30:49;;;;;;;14.10;13.10;;;;;;;;;;2612573;54;20504;-73
2023/09/03 12:33:15;;;;;;;13.90;13.00;;;;;;;;;;2613270;54;20384;-73
2023/09/03 12:35:41;;;;;;;13.77;12.87;;;;;;;;;;2612160;54;20430;-73
2023/09/03 12:38:07;;;;;;;12.77;12.07;;;;;;;;;;2611809;47;20424;-73
2023/09/03 12:40:33;;;;;;;12.40;11.70;;;;;;;;;;2611059;54;20396;-72
2023/09/03 12:43:00;;;;;;;12.70;11.80;;;;;;;;;;2611151;54;20400;-73
2023/09/03 12:45:26;;;;;;;11.97;11.37;;;;;;;;;;2611871;54;20395;-72
2023/09/03 12:47:52;;;;;;;12.47;11.77;;;;;;;;;;2612147;54;20415;-73
2023/09/03 12:50:18;;;;;;;13.83;13.03;;;;;;;;;;2612224;54;20411;-72
2023/09/03 12:52:44;;;;;;;12.77;12.07;;;;;;;;;;2612482;54;20452;-73
2023/09/03 12:55:10;;;;;;;12.20;11.27;;;;;;;;;;2612347;46;20597;-72
2023/09/03 12:57:36;;;;;;;14.40;13.23;;;;;;;;;;2611422;54;20403;-73
2023/09/03 13:00:04;;;;;;;13.73;12.80;;;;;;;;;;2611906;54;20522;-73
2023/09/03 13:02:30;;;;;;;12.40;11.60;;;;;;;;;;2609051;51;20433;-72
2023/09/03 13:04:56;;;;;;;12.50;11.77;;;;;;;;;;2611368;54;20436;-72
2023/09/03 13:07:22;;;;;;;14.13;12.73;;;;;;;;;;2612493;54;20532;-73
2023/09/03 13:09:48;;;;;;;13.70;12.70;;;;;;;;;;2611798;47;20443;-73
2023/09/03 13:12:14;;;;;;;15.53;14.33;;;;;;;;;;2611888;54;21001;-73
2023/09/03 13:14:40;;;;;;;14.93;13.90;;;;;;;;;;2611775;51;20519;-72
2023/09/03 13:17:06;;;;;;;14.73;13.70;;;;;;;;;;2613918;39;21215;-73
2023/09/03 13:19:32;;;;;;;16.33;14.97;;;;;;;;;;2612455;54;20554;-73
2023/09/03 13:21:58;;;;;;;14.80;13.80;;;;;;;;;;2612951;54;20454;-73
2023/09/03 13:24:25;;;;;;;15.50;14.40;;;;;;;;;;2613038;54;20427;-73
2023/09/03 13:26:52;;;;;;;15.80;14.80;;;;;;;;;;2612316;47;20543;-73
2023/09/03 13:29:18;;;;;;;16.00;15.00;;;;;;;;;;2612298;54;20419;-74
2023/09/03 13:31:45;;;;;;;16.27;15.00;;;;;;;;;;2613477;39;20806;-73
2023/09/03 13:34:11;;;;;;;16.83;15.57;;;;;;;;;;2612253;47;20439;-74
2023/09/03 13:36:37;;;;;;;16.47;15.30;;;;;;;;;;2612564;54;20443;-71
2023/09/03 13:39:06;;;;;;;14.60;13.70;;;;;;;;;;2611767;54;20411;-71
2023/09/03 13:41:32;;;;;;;15.07;14.10;;;;;;;;;;2612326;54;20404;-70
2023/09/03 13:43:59;;;;;;;15.80;14.53;;;;;;;;;;2611565;54;20408;-69
2023/09/03 13:46:25;;;;;;;15.17;14.07;;;;;;;;;;2611851;47;20416;-71
2023/09/03 13:48:51;;;;;;;14.87;13.87;;;;;;;;;;2612203;47;20416;-70
2023/09/03 13:51:17;;;;;;;16.43;15.33;;;;;;;;;;2611507;54;20406;-71
2023/09/03 13:53:46;;;;;;;16.07;14.93;;;;;;;;;;2612137;54;20402;-70
2023/09/03 13:56:12;;;;;;;15.40;14.30;;;;;;;;;;2611893;54;20451;-70
2023/09/03 13:58:38;;;;;;;15.50;14.20;;;;;;;;;;2610580;54;20412;-70
2023/09/03 14:01:08;;;;;;;17.23;16.00;;;;;;;;;;2611358;54;20463;-71
2023/09/03 14:03:35;;;;;;;16.50;15.30;;;;;;;;;;2612317;54;20450;-70
2023/09/03 14:06:07;;;;;;;17.60;16.50;;;;;;;;;;2612591;46;20453;-70
2023/09/03 14:08:33;;;;;;;16.30;15.30;;;;;;;;;;2613463;54;20412;-71
2023/09/03 14:10:59;;;;;;;17.00;15.60;;;;;;;;;;2613380;54;21082;-70
2023/09/03 14:13:27;;;;;;;17.00;16.00;;;;;;;;;;2612018;46;20466;-70
2023/09/03 14:15:53;;;;;;;17.17;16.07;;;;;;;;;;2611950;54;20399;-71
2023/09/03 14:18:19;;;;;;;17.20;16.10;;;;;;;;;;2612395;54;21161;-70